createdAt,value
2022-08-20T00:00:33.248Z,41.72
2022-08-20T00:03:06.362Z,41.76
2022-08-20T00:05:39.317Z,41.74
2022-08-20T00:08:12.282Z,41.84
2022-08-20T00:10:46.196Z,41.54
2022-08-20T00:13:18.296Z,41.44
2022-08-20T00:15:51.248Z,41.35
2022-08-20T00:18:24.360Z,41.35
2022-08-20T00:23:47.373Z,41.32
2022-08-20T00:26:20.403Z,41.34
2022-08-20T00:28:53.277Z,41.45
2022-08-20T00:31:26.415Z,41.44
2022-08-20T00:33:59.427Z,41.38
2022-08-20T00:36:33.011Z,41.59
2022-08-20T00:39:05.380Z,41.44
2022-08-20T00:41:38.333Z,41.38
2022-08-20T00:44:11.430Z,41.46
2022-08-20T00:46:44.340Z,41.45
2022-08-20T00:49:17.376Z,41.50
2022-08-20T00:51:50.362Z,41.51
2022-08-20T00:54:23.384Z,41.69
2022-08-20T00:56:56.335Z,41.59
2022-08-20T00:59:29.428Z,41.50
2022-08-20T01:02:02.454Z,41.59
2022-08-20T01:04:35.422Z,41.57
2022-08-20T01:07:08.493Z,41.70
2022-08-20T01:09:57.662Z,41.76
2022-08-20T01:12:16.462Z,41.72
2022-08-20T01:14:49.470Z,41.77
2022-08-20T01:17:22.483Z,41.91
2022-08-20T01:19:55.437Z,41.87
2022-08-20T01:22:28.450Z,41.91
2022-08-20T01:25:01.495Z,41.99
2022-08-20T01:27:42.508Z,42.04
2022-08-20T01:30:07.461Z,42.18
2022-08-20T01:32:40.442Z,42.06
2022-08-20T01:35:13.463Z,42.08
2022-08-20T01:37:46.440Z,42.11
2022-08-20T01:40:20.532Z,42.15
2022-08-20T01:43:07.379Z,42.13
2022-08-20T01:45:40.486Z,42.19
2022-08-20T01:48:13.415Z,42.29
2022-08-20T01:50:46.484Z,42.33
2022-08-20T01:53:19.546Z,42.49
2022-08-20T01:55:52.432Z,42.38
2022-08-20T01:58:25.509Z,42.60
2022-08-20T02:00:58.423Z,42.50
2022-08-20T02:03:36.271Z,42.50
2022-08-20T02:06:04.519Z,42.44
2022-08-20T02:08:37.552Z,42.41
2022-08-20T02:11:10.552Z,42.44
2022-08-20T02:13:43.561Z,42.64
2022-08-20T02:16:16.452Z,42.59
2022-08-20T02:18:49.569Z,42.62
2022-08-20T02:21:22.487Z,42.60
2022-08-20T02:23:55.571Z,42.66
2022-08-20T02:26:28.550Z,42.66
2022-08-20T02:29:01.466Z,42.58
2022-08-20T02:31:35.123Z,42.54
2022-08-20T02:34:21.633Z,42.56
2022-08-20T02:36:40.583Z,42.77
2022-08-20T02:39:13.539Z,42.75
2022-08-20T02:41:46.543Z,42.66
2022-08-20T02:44:19.502Z,42.67
2022-08-20T02:46:52.576Z,42.74
2022-08-20T02:49:25.547Z,42.73
2022-08-20T02:51:58.580Z,42.66
2022-08-20T02:54:31.542Z,42.76
2022-08-20T02:57:04.589Z,42.80
2022-08-20T02:59:37.501Z,42.84
2022-08-20T03:02:10.554Z,42.90
2022-08-20T03:04:43.496Z,42.95
2022-08-20T03:07:16.591Z,42.95
2022-08-20T03:09:49.639Z,43.07
2022-08-20T03:12:22.549Z,43.05
2022-08-20T03:14:55.626Z,43.13
2022-08-20T03:17:34.480Z,43.07
2022-08-20T03:20:07.543Z,43.15
2022-08-20T03:22:40.602Z,43.26
2022-08-20T03:25:17.449Z,43.36
2022-08-20T03:27:54.215Z,43.44
2022-08-20T03:30:23.660Z,43.55
2022-08-20T03:32:56.674Z,43.54
2022-08-20T03:35:29.630Z,43.48
2022-08-20T03:38:02.619Z,43.71
2022-08-20T03:43:25.687Z,43.70
2022-08-20T03:45:58.644Z,43.74
2022-08-20T03:48:31.667Z,43.67
2022-08-20T03:51:04.610Z,43.71
2022-08-20T03:53:37.692Z,43.85
2022-08-20T03:56:10.605Z,43.74
2022-08-20T03:58:43.707Z,43.87
2022-08-20T04:01:36.882Z,43.70
2022-08-20T04:03:53.339Z,43.78
2022-08-20T04:06:22.654Z,43.63
2022-08-20T04:08:55.641Z,43.79
2022-08-20T04:11:28.727Z,43.72
2022-08-20T04:14:01.598Z,43.81
2022-08-20T04:16:34.686Z,43.88
2022-08-20T04:19:07.422Z,43.82
2022-08-20T04:21:40.631Z,43.88
2022-08-20T04:24:24.496Z,43.71
2022-08-20T04:26:46.497Z,43.85
2022-08-20T04:29:19.746Z,43.98
2022-08-20T04:31:52.486Z,43.93
2022-08-20T04:37:16.731Z,44.02
2022-08-20T04:39:48.523Z,44.16
2022-08-20T04:42:21.583Z,44.09
2022-08-20T04:44:54.554Z,44.18
2022-08-20T04:47:34.758Z,44.03
2022-08-20T04:50:00.525Z,44.12
2022-08-20T04:52:33.735Z,44.14
2022-08-20T04:55:09.590Z,44.12
2022-08-20T04:57:42.763Z,44.10
2022-08-20T05:00:15.827Z,44.15
2022-08-20T05:02:48.597Z,44.32
2022-08-20T05:05:35.612Z,44.37
2022-08-20T05:08:18.759Z,44.32
2022-08-20T05:10:50.691Z,44.37
2022-08-20T05:13:27.244Z,44.30
2022-08-20T05:15:56.736Z,44.36
2022-08-20T05:18:29.803Z,44.34
2022-08-20T05:21:02.719Z,44.49
2022-08-20T05:23:35.733Z,44.55
2022-08-20T05:26:08.722Z,44.46
2022-08-20T05:28:54.399Z,44.59
2022-08-20T05:31:14.689Z,44.59
2022-08-20T05:33:47.826Z,44.58
2022-08-20T05:36:20.731Z,44.74
2022-08-20T05:41:43.800Z,44.84
2022-08-20T05:44:30.724Z,44.87
2022-08-20T05:47:04.184Z,44.97
2022-08-20T05:49:36.758Z,44.93
2022-08-20T05:52:09.694Z,44.99
2022-08-20T05:54:42.874Z,44.92
2022-08-20T05:57:15.811Z,45.11
2022-08-20T05:59:48.880Z,45.32
2022-08-20T06:02:21.737Z,45.49
2022-08-20T06:04:55.938Z,45.70
2022-08-20T06:07:27.867Z,45.82
2022-08-20T06:10:00.766Z,45.98
2022-08-20T06:12:33.752Z,46.13
2022-08-20T06:15:06.858Z,46.27
2022-08-20T06:17:39.833Z,46.50
2022-08-20T06:20:12.842Z,46.63
2022-08-20T06:22:45.877Z,46.82
2022-08-20T06:25:18.783Z,46.94
2022-08-20T06:27:51.788Z,47.24
2022-08-20T06:30:24.858Z,47.31
2022-08-20T06:32:57.852Z,47.42
2022-08-20T06:35:30.922Z,47.47
2022-08-20T06:38:03.565Z,47.56
2022-08-20T06:40:36.694Z,47.72
2022-08-20T06:43:09.534Z,47.84
2022-08-20T06:45:42.927Z,47.87
2022-08-20T06:48:15.615Z,47.88
2022-08-20T06:50:48.738Z,47.90
2022-08-20T06:53:21.732Z,48.10
2022-08-20T06:55:54.747Z,48.11
2022-08-20T06:58:37.514Z,48.27
2022-08-20T07:01:04.920Z,48.42
2022-08-20T07:03:33.748Z,48.56
2022-08-20T07:06:06.734Z,48.74
2022-08-20T07:08:39.622Z,49.17
2022-08-20T07:11:12.583Z,50.36
2022-08-20T07:13:45.714Z,50.56
2022-08-20T07:16:18.869Z,51.06
2022-08-20T07:18:51.670Z,50.77
2022-08-20T07:21:24.675Z,50.62
2022-08-20T07:23:58.019Z,50.97
2022-08-20T07:26:30.741Z,51.36
2022-08-20T07:29:03.647Z,51.47
2022-08-20T07:31:36.746Z,51.38
2022-08-20T07:34:09.843Z,51.21
2022-08-20T07:36:42.783Z,51.72
2022-08-20T07:39:15.888Z,52.54
2022-08-20T07:41:56.682Z,52.42
2022-08-20T07:44:21.641Z,53.00
2022-08-20T07:46:54.968Z,53.01
2022-08-20T07:49:27.993Z,52.71
2022-08-20T07:52:00.912Z,51.66
2022-08-20T07:54:33.743Z,51.41
2022-08-20T07:57:06.639Z,51.59
2022-08-20T07:59:39.789Z,51.72
2022-08-20T08:02:12.664Z,51.55
2022-08-20T08:04:45.833Z,51.48
2022-08-20T08:07:18.665Z,51.49
2022-08-20T08:09:51.675Z,51.35
2022-08-20T08:12:24.752Z,51.26
2022-08-20T08:14:57.675Z,51.50
2022-08-20T08:17:36.836Z,51.58
2022-08-20T08:20:09.743Z,51.50
2022-08-20T08:22:42.760Z,51.51
2022-08-20T08:25:15.745Z,51.28
2022-08-20T08:27:48.688Z,51.24
2022-08-20T08:30:21.696Z,51.41
2022-08-20T08:32:54.740Z,51.23
2022-08-20T08:35:27.921Z,51.04
2022-08-20T08:38:00.739Z,50.97
2022-08-20T08:40:33.720Z,50.80
2022-08-20T08:43:06.699Z,50.82
2022-08-20T08:45:39.972Z,50.69
2022-08-20T08:48:17.868Z,50.73
2022-08-20T08:50:53.814Z,50.58
2022-08-20T08:53:18.717Z,50.55
2022-08-20T08:55:51.758Z,50.47
2022-08-20T08:58:25.134Z,50.40
2022-08-20T09:01:02.081Z,50.26
2022-08-20T09:03:32.457Z,50.23
2022-08-20T09:06:06.069Z,50.14
2022-08-20T09:08:38.973Z,50.04
2022-08-20T09:11:12.026Z,49.93
2022-08-20T09:13:45.031Z,49.92
2022-08-20T09:16:20.972Z,49.83
2022-08-20T09:18:54.038Z,49.78
2022-08-20T09:21:27.104Z,49.76
2022-08-20T09:24:00.048Z,49.75
2022-08-20T09:26:34.561Z,49.65
2022-08-20T09:29:06.076Z,49.62
2022-08-20T09:31:38.926Z,49.58
2022-08-20T09:34:12.035Z,49.55
2022-08-20T09:36:45.064Z,49.50
2022-08-20T09:39:18.147Z,49.50
2022-08-20T09:41:51.088Z,49.45
2022-08-20T09:44:23.812Z,49.41
2022-08-20T09:46:56.979Z,49.37
2022-08-20T09:49:30.152Z,49.37
2022-08-20T09:52:02.891Z,49.33
2022-08-20T09:54:35.863Z,49.34
2022-08-20T09:57:09.011Z,49.29
2022-08-20T09:59:41.806Z,49.23
2022-08-20T10:02:14.905Z,49.21
2022-08-20T10:04:48.112Z,49.19
2022-08-20T10:07:21.005Z,49.16
2022-08-20T10:09:53.891Z,49.13
2022-08-20T10:12:27.077Z,49.10
2022-08-20T10:15:00.161Z,49.09
2022-08-20T10:17:33.040Z,49.07
2022-08-20T10:20:05.906Z,49.10
2022-08-20T10:22:38.977Z,49.07
2022-08-20T10:25:12.125Z,49.05
2022-08-20T10:27:44.911Z,49.06
2022-08-20T10:30:17.858Z,49.04
2022-08-20T10:32:50.956Z,49.05
2022-08-20T10:35:24.122Z,49.01
2022-08-20T10:37:57.244Z,49.01
2022-08-20T10:40:29.998Z,49.01
2022-08-20T10:43:03.015Z,49.03
2022-08-20T10:45:36.033Z,49.01
2022-08-20T10:48:09.153Z,49.02
2022-08-20T10:50:41.946Z,49.03
2022-08-20T10:53:14.884Z,49.13
2022-08-20T10:55:48.190Z,49.10
2022-08-20T10:58:23.808Z,49.13
2022-08-20T11:00:53.894Z,49.22
2022-08-20T11:03:27.017Z,49.18
2022-08-20T11:05:59.958Z,49.24
2022-08-20T11:08:34.729Z,49.26
2022-08-20T11:14:04.991Z,49.33
2022-08-20T11:16:38.308Z,49.42
2022-08-20T11:19:11.226Z,49.50
2022-08-20T11:21:43.954Z,49.42
2022-08-20T11:24:16.934Z,49.50
2022-08-20T11:26:49.960Z,49.50
2022-08-20T11:29:23.138Z,49.55
2022-08-20T11:31:56.338Z,49.61
2022-08-20T11:34:29.365Z,49.60
2022-08-20T11:37:02.150Z,49.63
2022-08-20T11:39:38.563Z,49.66
2022-08-20T11:42:08.134Z,49.60
2022-08-20T11:44:54.970Z,49.64
2022-08-20T11:47:28.114Z,49.61
2022-08-20T11:50:01.078Z,49.66
2022-08-20T11:52:34.052Z,49.71
2022-08-20T11:55:07.141Z,49.59
2022-08-20T11:57:40.121Z,49.62
2022-08-20T12:00:12.983Z,49.63
2022-08-20T12:02:46.119Z,49.69
2022-08-20T12:05:19.188Z,49.71
2022-08-20T12:07:52.195Z,49.70
2022-08-20T12:10:25.304Z,49.73
2022-08-20T12:12:58.680Z,49.77
2022-08-20T12:15:30.997Z,49.79
2022-08-20T12:18:04.161Z,49.79
2022-08-20T12:20:37.139Z,49.82
2022-08-20T12:23:10.006Z,49.79
2022-08-20T12:25:43.334Z,49.77
2022-08-20T12:28:16.024Z,49.76
2022-08-20T12:31:03.534Z,49.80
2022-08-20T12:33:37.203Z,49.92
2022-08-20T12:36:10.020Z,49.86
2022-08-20T12:38:43.048Z,49.73
2022-08-20T12:41:16.065Z,49.67
2022-08-20T12:43:49.343Z,49.67
2022-08-20T12:46:22.226Z,49.67
2022-08-20T12:48:55.364Z,49.58
2022-08-20T12:51:33.999Z,49.56
2022-08-20T12:54:07.092Z,49.61
2022-08-20T12:56:40.103Z,49.55
2022-08-20T12:59:13.081Z,49.54
2022-08-20T13:01:46.162Z,49.57
2022-08-20T13:04:19.109Z,49.55
2022-08-20T13:06:52.206Z,49.57
2022-08-20T13:09:25.256Z,49.55
2022-08-20T13:11:58.157Z,49.59
2022-08-20T13:14:31.230Z,49.81
2022-08-20T13:17:06.468Z,49.81
2022-08-20T13:19:41.185Z,49.85
2022-08-20T13:22:14.143Z,49.96
2022-08-20T13:24:53.274Z,49.97
2022-08-20T13:27:26.176Z,50.06
2022-08-20T13:29:59.409Z,50.04
2022-08-20T13:32:32.201Z,50.02
2022-08-20T13:35:05.227Z,50.15
2022-08-20T13:37:40.312Z,50.16
2022-08-20T13:40:13.554Z,50.12
2022-08-20T13:42:46.178Z,50.24
2022-08-20T13:45:19.294Z,50.21
2022-08-20T13:47:52.133Z,50.32
2022-08-20T13:50:25.151Z,50.39
2022-08-20T13:52:58.397Z,50.55
2022-08-20T13:55:31.385Z,50.46
2022-08-20T13:58:04.348Z,50.54
2022-08-20T14:00:37.227Z,50.77
2022-08-20T14:03:10.159Z,50.63
2022-08-20T14:05:43.191Z,50.76
2022-08-20T14:08:16.266Z,50.85
2022-08-20T14:10:49.210Z,50.64
2022-08-20T14:13:22.213Z,50.31
2022-08-20T14:15:55.195Z,50.32
2022-08-20T14:18:28.373Z,50.30
2022-08-20T14:21:01.193Z,50.29
2022-08-20T14:23:36.921Z,50.32
2022-08-20T14:26:07.229Z,50.29
2022-08-20T14:28:40.186Z,50.25
2022-08-20T14:31:13.231Z,50.24
2022-08-20T14:33:46.224Z,50.27
2022-08-20T14:36:19.336Z,50.31
2022-08-20T14:38:52.273Z,50.33
2022-08-20T14:41:25.237Z,50.31
2022-08-20T14:43:58.404Z,50.21
2022-08-20T14:46:31.423Z,50.25
2022-08-20T14:49:04.254Z,50.29
2022-08-20T14:51:37.452Z,50.23
2022-08-20T14:54:10.555Z,50.15
2022-08-20T14:56:43.275Z,50.09
2022-08-20T14:59:16.241Z,50.23
2022-08-20T15:01:49.243Z,50.15
2022-08-20T15:04:22.390Z,50.04
2022-08-20T15:06:55.487Z,50.02
2022-08-20T15:09:28.291Z,50.05
2022-08-20T15:12:01.253Z,49.97
2022-08-20T15:14:34.264Z,49.99
2022-08-20T15:17:07.273Z,49.97
2022-08-20T15:19:40.570Z,49.93
2022-08-20T15:22:13.602Z,49.93
2022-08-20T15:24:49.175Z,49.94
2022-08-20T15:27:22.942Z,50.00
2022-08-20T15:29:55.366Z,49.90
2022-08-20T15:32:28.318Z,49.85
2022-08-20T15:35:15.207Z,49.82
2022-08-20T15:37:48.302Z,50.20
2022-08-20T15:40:25.743Z,49.93
2022-08-20T15:42:54.489Z,49.91
2022-08-20T15:45:27.527Z,49.88
2022-08-20T15:48:00.482Z,49.93
2022-08-20T15:50:33.562Z,49.83
2022-08-20T15:53:06.498Z,49.77
2022-08-20T15:55:39.395Z,49.74
2022-08-20T15:58:12.335Z,49.60
2022-08-20T16:00:47.284Z,49.70
2022-08-20T16:03:20.321Z,49.69
2022-08-20T16:05:53.428Z,49.67
2022-08-20T16:08:26.422Z,49.54
2022-08-20T16:10:59.521Z,49.60
2022-08-20T16:13:32.596Z,49.43
2022-08-20T16:16:05.428Z,49.44
2022-08-20T16:18:38.654Z,49.35
2022-08-20T16:21:11.643Z,49.52
2022-08-20T16:23:44.374Z,49.51
2022-08-20T16:26:17.681Z,49.55
2022-08-20T16:28:50.532Z,48.97
2022-08-20T16:31:23.777Z,47.86
2022-08-20T16:33:56.762Z,48.27
2022-08-20T16:36:43.650Z,48.14
2022-08-20T16:39:18.273Z,48.18
2022-08-20T16:41:51.420Z,48.19
2022-08-20T16:44:24.553Z,48.17
2022-08-20T16:46:57.533Z,48.14
2022-08-20T16:49:30.423Z,48.12
2022-08-20T16:52:03.432Z,48.11
2022-08-20T16:54:36.713Z,48.19
2022-08-20T16:57:12.620Z,48.21
2022-08-20T16:59:42.404Z,48.21
2022-08-20T17:02:15.424Z,48.33
2022-08-20T17:04:59.637Z,48.35
2022-08-20T17:07:35.570Z,48.51
2022-08-20T17:10:08.581Z,48.57
2022-08-20T17:12:41.423Z,48.56
2022-08-20T17:15:14.421Z,48.62
2022-08-20T17:17:47.430Z,48.68
2022-08-20T17:20:21.512Z,48.72
2022-08-20T17:22:53.612Z,48.81
2022-08-20T17:25:26.642Z,48.90
2022-08-20T17:27:59.504Z,48.92
2022-08-20T17:30:32.684Z,48.87
2022-08-20T17:33:05.618Z,48.85
2022-08-20T17:35:38.489Z,48.92
2022-08-20T17:38:11.485Z,48.86
2022-08-20T17:40:44.475Z,48.87
2022-08-20T17:43:17.489Z,48.84
2022-08-20T17:45:50.547Z,48.88
2022-08-20T17:48:23.696Z,48.88
2022-08-20T17:50:56.718Z,48.83
2022-08-20T17:53:29.611Z,48.80
2022-08-20T17:56:02.573Z,48.77
2022-08-20T17:58:35.690Z,48.77
2022-08-20T18:01:09.106Z,48.81
2022-08-20T18:03:58.046Z,48.82
2022-08-20T18:06:31.674Z,48.74
2022-08-20T18:09:04.635Z,48.71
2022-08-20T18:11:37.575Z,48.71
2022-08-20T18:14:10.515Z,49.18
2022-08-20T18:16:43.513Z,49.08
2022-08-20T18:19:16.815Z,49.00
2022-08-20T18:21:49.974Z,48.55
2022-08-20T18:24:23.786Z,47.55
2022-08-20T18:26:57.529Z,46.60
2022-08-20T18:29:30.693Z,45.59
2022-08-20T18:32:03.847Z,43.83
2022-08-20T18:34:36.637Z,44.37
2022-08-20T18:37:09.766Z,43.30
2022-08-20T18:39:42.966Z,42.10
2022-08-20T18:42:15.851Z,42.96
2022-08-20T18:44:48.633Z,42.25
2022-08-20T18:47:21.652Z,42.12
2022-08-20T18:49:54.739Z,42.50
2022-08-20T18:52:27.956Z,42.33
2022-08-20T18:55:00.846Z,41.79
2022-08-20T18:57:41.554Z,42.11
2022-08-20T19:00:06.709Z,42.98
2022-08-20T19:02:39.909Z,40.19
2022-08-20T19:05:12.578Z,41.93
2022-08-20T19:07:48.532Z,41.15
2022-08-20T19:10:27.696Z,40.79
2022-08-20T19:12:51.649Z,40.81
2022-08-20T19:15:24.582Z,40.30
2022-08-20T19:17:57.612Z,40.32
2022-08-20T19:20:30.764Z,40.18
2022-08-20T19:23:03.631Z,39.26
2022-08-20T19:25:36.809Z,39.89
2022-08-20T19:28:09.801Z,39.55
2022-08-20T19:30:42.979Z,39.70
2022-08-20T19:33:15.646Z,39.70
2022-08-20T19:35:48.916Z,39.68
2022-08-20T19:38:21.734Z,39.96
2022-08-20T19:40:58.392Z,39.98
2022-08-20T19:43:27.942Z,39.90
2022-08-20T19:46:00.977Z,40.13
2022-08-20T19:48:33.783Z,39.79
2022-08-20T19:51:06.962Z,39.87
2022-08-20T19:53:39.820Z,39.99
2022-08-20T19:56:12.986Z,39.95
2022-08-20T19:58:45.795Z,39.85
2022-08-20T20:01:32.674Z,40.02
2022-08-20T20:04:06.053Z,39.77
2022-08-20T20:06:38.861Z,40.15
2022-08-20T20:09:11.748Z,39.99
2022-08-20T20:11:44.850Z,40.15
2022-08-20T20:14:17.957Z,39.99
2022-08-20T20:16:50.756Z,40.13
2022-08-20T20:19:27.153Z,39.59
2022-08-20T20:21:58.132Z,40.28
2022-08-20T20:24:30.998Z,39.61
2022-08-20T20:27:04.104Z,39.95
2022-08-20T20:29:37.068Z,39.60
2022-08-20T20:32:09.697Z,39.72
2022-08-20T20:34:55.654Z,40.14
2022-08-20T20:37:16.013Z,40.28
2022-08-20T20:39:48.835Z,40.39
2022-08-20T20:42:21.824Z,40.14
2022-08-20T20:44:55.005Z,40.20
2022-08-20T20:47:27.726Z,40.13
2022-08-20T20:50:00.799Z,40.01
2022-08-20T20:52:33.922Z,40.65
2022-08-20T20:55:06.842Z,40.14
2022-08-20T20:57:40.140Z,40.36
2022-08-20T21:00:12.771Z,38.62
2022-08-20T21:02:46.043Z,38.44
2022-08-20T21:05:18.741Z,38.45
2022-08-20T21:07:52.062Z,40.97
2022-08-20T21:10:25.130Z,41.63
2022-08-20T21:12:58.396Z,40.57
2022-08-20T21:15:30.858Z,40.16
2022-08-20T21:18:04.065Z,40.38
2022-08-20T21:20:36.865Z,39.58
2022-08-20T21:23:10.145Z,39.46
2022-08-20T21:25:42.963Z,39.63
2022-08-20T21:28:16.057Z,39.38
2022-08-20T21:30:48.962Z,39.19
2022-08-20T21:33:22.190Z,39.90
2022-08-20T21:35:57.026Z,39.61
2022-08-20T21:38:30.249Z,39.69
2022-08-20T21:41:04.142Z,40.54
2022-08-20T21:43:37.184Z,39.57
2022-08-20T21:46:10.180Z,40.61
2022-08-20T21:48:46.389Z,40.21
2022-08-20T21:51:16.208Z,40.30
2022-08-20T21:53:49.226Z,39.64
2022-08-20T21:56:22.545Z,40.40
2022-08-20T21:58:55.351Z,40.52
2022-08-20T22:01:28.211Z,40.40
2022-08-20T22:04:01.226Z,40.36
2022-08-20T22:06:34.146Z,40.13
2022-08-20T22:09:06.924Z,40.31
2022-08-20T22:11:40.226Z,40.15
2022-08-20T22:14:13.159Z,39.47
2022-08-20T22:16:46.210Z,39.98
2022-08-20T22:19:19.171Z,39.46
2022-08-20T22:21:52.208Z,38.93
2022-08-20T22:24:25.273Z,39.17
2022-08-20T22:27:04.174Z,38.89
2022-08-20T22:29:37.146Z,38.98
2022-08-20T22:32:10.276Z,38.95
2022-08-20T22:34:43.212Z,38.88
2022-08-20T22:37:16.179Z,38.71
2022-08-20T22:39:49.259Z,38.56
2022-08-20T22:42:22.287Z,38.31
2022-08-20T22:44:55.294Z,38.45
2022-08-20T22:47:28.157Z,38.48
2022-08-20T22:50:01.237Z,38.65
2022-08-20T22:52:34.199Z,39.14
2022-08-20T22:55:07.207Z,38.97
2022-08-20T22:57:40.295Z,38.81
2022-08-20T23:00:13.168Z,38.35
2022-08-20T23:02:47.301Z,38.28
2022-08-20T23:05:20.242Z,38.10
2022-08-20T23:07:54.313Z,37.93
2022-08-20T23:10:26.201Z,38.03
2022-08-20T23:12:59.526Z,37.86
2022-08-20T23:15:32.325Z,38.13
2022-08-20T23:18:05.304Z,38.06
2022-08-20T23:20:38.078Z,38.12
2022-08-20T23:23:11.357Z,38.02
2022-08-20T23:25:44.362Z,38.18
2022-08-20T23:28:17.340Z,38.05
2022-08-20T23:30:50.231Z,38.20
2022-08-20T23:33:23.360Z,38.42
2022-08-20T23:35:56.411Z,38.38
2022-08-20T23:38:31.280Z,38.26
2022-08-20T23:41:04.366Z,38.21
2022-08-20T23:43:37.341Z,38.22
2022-08-20T23:46:10.379Z,38.19
2022-08-20T23:48:43.355Z,38.08
2022-08-20T23:51:16.262Z,37.88
2022-08-20T23:53:49.377Z,39.13
2022-08-20T23:56:22.331Z,38.80
2022-08-20T23:58:55.406Z,38.24
